• Join FlightAware (Why Join?)
  • Login
  • US Flag 
02:34PM EDT


 

Airport Tracker/Info


-or-


 

Live Flight TrackerFlight Track Log ✈ XOJ548 ✈ 15-May-2013 ✈ KPIT - KMCO

Flight Track Log - Related Links

Times and Time Zones

All times are in EDT time to prevent confusion due to time zone crossing. See the XOJ548 flight status page for this flight to view local times or setup timezone preferences in your user account.

Time Position Orientation Groundspeed Altitude Reporting Facility
EDT Latitude Longitude Course Direction KTS MPH feet Rate Location/Type
01:52PM 40.4253 -80.2939 180° South 271 312 6,400  Level Cleveland Center
01:53PM 40.3628 -80.2889 177° South 269 310 10,500 3,960 Climbing Cleveland Center
01:54PM 40.2772 -80.2864 179° South 293 337 14,400 3,600 Climbing Cleveland Center
01:55PM 40.1897 -80.2869 180° South 298 343 17,700 3,420 Climbing Cleveland Center
01:56PM 40.0958 -80.2872 180° South 313 360 21,300 3,120 Climbing Cleveland Center
01:57PM 39.7882 -80.2500 180° South  Level FlightAware Approximate
01:57PM 39.9981 -80.2850 179° South 333 383 24,000  Level Cleveland Center
01:58PM 39.6720 -80.2500 180° South  Level FlightAware Approximate
01:58PM 39.8958 -80.2828 179° South 354 407 26,400  Level Cleveland Center
02:00PM 39.6686 -80.2783 179° South 396 456 30,900 1,620 Climbing Cleveland Center
02:01PM 39.5725 -80.2761 179° South 416 479 31,000  Climbing Washington Center
02:02PM 39.4436 -80.2731 179° South 440 506 31,000  Level Washington Center
02:03PM 39.3144 -80.2703 179° South 462 532 31,000  Level Washington Center
02:04PM 39.1897 -80.2594 176° South 462 532 31,000 840 Level Washington Center
02:05PM 39.0653 -80.2461 175° South 457 526 32,800 960 Climbing Washington Center
02:06PM 38.9339 -80.2406 178° South 457 526 33,000 60 Climbing Washington Center
02:07PM 38.8094 -80.2272 175° South 457 526 33,000  Level Washington Center
02:08PM 38.6908 -80.2172 176° South 462 532 33,000 420 Level Washington Center
02:09PM 38.5644 -80.2014 174° South 462 532 33,900 1,260 Climbing Washington Center
02:10PM 38.4419 -80.1883 175° South 457 526 35,600 1,020 Climbing Washington Center
02:11PM 38.3047 -80.1747 176° South 452 520 36,000 300 Climbing Washington Center
02:12PM 38.1781 -80.1617 175° South 460 529 36,300 480 Climbing Washington Center
02:13PM 38.0514 -80.1486 175° South 460 529 37,000 360 Climbing Washington Center
02:14PM 37.9392 -80.1364 175° South 455 524 37,100 720 Climbing Washington Center
02:15PM 37.8122 -80.1236 175° South 455 524 38,500 1,260 Climbing Washington Center
02:16PM 37.6897 -80.1136 176° South 455 524 39,700 1,260 Climbing Washington Center
02:17PM 37.5544 -80.1003 176° South 455 524 41,000 900 Climbing Washington Center
02:18PM 37.4317 -80.0931 177° South 455 524 41,500 360 Climbing Washington Center
02:19PM 37.3072 -80.0778 174° South 455 524 41,800 540 Climbing Washington Center
02:20PM 37.1906 -80.0711 177° South 460 529 42,700 840 Climbing Washington Center
02:21PM 37.0658 -80.0586 175° South 460 529 43,500 540 Climbing Washington Center
02:23PM 36.8211 -80.1050 189° South 455 524 44,300 420 Climbing Atlanta Center
02:24PM 36.6892 -80.1506 195° South 450 518 44,800 300 Climbing Atlanta Center
02:25PM 36.5714 -80.1872 194° South 450 518 45,000 60 Climbing Atlanta Center
02:26PM 36.4517 -80.2267 195° South 450 518 45,000  Level Atlanta Center
02:27PM 36.3422 -80.2600 194° South 450 518 45,000  Level Atlanta Center
02:28PM 36.2200 -80.2917 192° South 450 518 45,000  Level Atlanta Center
02:29PM 36.0978 -80.3203 191° South 450 518 45,000  Level Atlanta Center
02:30PM 35.9756 -80.3492 191° South 450 518 45,000  Level Atlanta Center
02:31PM 35.8453 -80.3806 191° South 443 510 45,000  Level Atlanta Center
02:32PM 35.7208 -80.4092 191° South 449 517 45,000  Level Atlanta Center
02:33PM 35.6111 -80.4344 191° South 449 517 45,000  Level Atlanta Center
02:34PM 35.4889 -80.4603 190° South 449 517 45,000  Level Atlanta Center
02:35PM 35.3644 -80.4886 191° South 449 517 45,000  Level Atlanta Center
02:36PM 35.2400 -80.5194 191° South 454 522 45,000  Level Atlanta Center
02:37PM 35.1075 -80.5528 192° South 454 522 45,000  Level Atlanta Center
02:38PM 34.9872 -80.5756 189° South 444 511 45,000  Level Atlanta Center
02:40PM 34.7322 -80.6392 192° South 455 524 45,000  Level Jacksonville Center
02:41PM 34.6117 -80.6650 190° South 448 516 45,000  Level Jacksonville Center
02:42PM 34.4892 -80.6933 191° South 448 516 45,000  Level Jacksonville Center
02:43PM 34.3728 -80.7214 191° South 461 531 45,000  Level Jacksonville Center
02:44PM 34.2458 -80.7497 190° South 448 516 45,000  Level Jacksonville Center
02:45PM 34.1233 -80.7753 190° South 448 516 45,000  Level Jacksonville Center
02:46PM 33.9986 -80.8011 190° South 448 516 45,000  Level Jacksonville Center
02:47PM 33.8758 -80.8289 191° South 448 516 45,000  Level Jacksonville Center
02:48PM 33.7553 -80.8592 192° South 448 516 45,000  Level Jacksonville Center
02:49PM 33.6306 -80.8844 190° South 453 521 45,000  Level Jacksonville Center
02:50PM 33.5058 -80.9097 190° South 453 521 45,000  Level Jacksonville Center
02:51PM 33.3831 -80.9375 191° South 453 521 45,000 -180 Level Jacksonville Center
02:52PM 33.2561 -80.9650 190° South 453 521 44,700 -420 Descending Jacksonville Center
02:53PM 33.1292 -80.9925 190° South 463 533 44,200 -540 Descending Jacksonville Center
02:54PM 33.0022 -81.0200 190° South 468 539 43,700 -540 Descending Jacksonville Center
02:55PM 32.8858 -81.0472 191° South 468 539 43,200 -420 Descending Jacksonville Center
02:56PM 32.7608 -81.0719 189° South 468 539 42,900 -120 Descending Jacksonville Center
02:57PM 32.6339 -81.0992 190° South 443 510 43,000  Climbing Jacksonville Center
02:58PM 32.5111 -81.1189 188° South 436 502 43,000  Level Jacksonville Center
02:59PM 32.3919 -81.1164 179° South 457 526 43,000  Level Jacksonville Center
03:00PM 32.2647 -81.1164 180° South 465 535 43,000  Level Jacksonville Center
03:01PM 32.1375 -81.1164 180° South 465 535 43,000  Level Jacksonville Center
03:02PM 32.0058 -81.1164 180° South 465 535 43,000  Level Jacksonville Center
03:03PM 31.8658 -81.1142 179° South 465 535 43,000  Level Jacksonville Center
03:04PM 31.7364 -81.1142 180° South 465 535 43,000  Level Jacksonville Center
03:05PM 31.6153 -81.1142 180° South 465 535 43,000  Level Jacksonville Center
03:06PM 31.4714 -81.1144 180° South 470 541 43,000  Level Jacksonville Center
03:08PM 31.2208 -81.1167 180° South 478 550 43,000 -60 Level Jacksonville Center
03:09PM 31.0872 -81.1169 180° South 478 550 42,900 -720 Descending Jacksonville Center
03:10PM 30.9556 -81.1169 180° South 473 544 41,600 -2,220 Descending Jacksonville Center
03:11PM 30.8158 -81.1147 179° South 468 539 38,500 -3,180 Descending Jacksonville Center
03:12PM 30.6822 -81.1147 180° South 474 545 35,300 -2,280 Descending Jacksonville Center
03:13PM 30.5486 -81.1147 180° South 479 551 34,000 -960 Descending Jacksonville Center
03:14PM 30.4086 -81.1150 180° South 484 557 33,400 -1,500 Descending Jacksonville Center
03:15PM 30.2728 -81.1150 180° South 489 563 31,000 -2,460 Descending Jacksonville Center
03:16PM 30.1331 -81.1178 181° South 496 571 28,500 -2,580 Descending Jacksonville Center
03:17PM 29.9994 -81.1178 180° South 496 571 25,900 -2,280 Descending Jacksonville Center
03:18PM 29.8742 -81.1178 180° South 474 545 24,000 -960 Descending Jacksonville Center
03:19PM 29.7531 -81.1175 180° South 451 519 24,000  Level Jacksonville Center
03:20PM 29.6319 -81.1172 180° South 441 507 24,000 -360 Level Jacksonville Center
03:21PM 29.5108 -81.1147 179° South 441 507 23,300 -1,740 Descending Jacksonville Center
03:22PM 29.3900 -81.1169 181° South 436 502 20,600 -2,700 Descending Jacksonville Center
03:23PM 29.2772 -81.1189 181° South 429 494 17,900 -2,520 Descending Jacksonville Center
03:24PM 29.1725 -81.1042 173° South 412 474 15,600 -2,280 Descending Jacksonville Center
03:25PM 29.0744 -81.0964 176° South 383 441 13,400 -1,800 Descending Jacksonville Center
03:26PM 28.9844 -81.0886 176° South 355 409 12,000 -1,620 Descending Jacksonville Center
03:27PM 28.9008 -81.0736 171° South 322 371 10,200 -1,260 Descending Jacksonville Center
03:28PM 28.8256 -81.0583 170° South 297 342 9,500 -960 Descending Jacksonville Center
03:29PM 28.7611 -81.0714 190° South 245 282 8,300 -960 Descending Jacksonville Center
03:30PM 28.7433 -81.1475 255° West 201 231 7,600 -780 Descending Jacksonville Center
03:31PM 28.7381 -81.2208 265° West 206 237 6,800 -960 Descending Jacksonville Center
03:32PM 28.7367 -81.2897 269° West 217 250 5,700 -1,020 Descending Jacksonville Center
03:33PM 28.7250 -81.3514 258° West 223 257 4,800 -840 Descending Jacksonville Center
03:34PM 28.6500 -81.3500 179° South 193 222 3,800 -600 Descending Orlando TRACON
03:35PM 28.6000 -81.3500 180° South 187 215 3,500 -540 Descending Orlando TRACON
03:36PM 28.5500 -81.3333 164° South 176 203 2,800 -960 Descending Orlando TRACON
03:37PM 28.5000 -81.3333 180° South 170 196 1,600 -1,140 Descending Orlando TRACON
03:38PM 28.4667 -81.3333 180° South 145 167 600 -1,140 Descending Orlando TRACON
03:40PM 28.4294 -81.3090 180° South  Level Estimated
03:47PM 28.4294 -81.3090 336° Northwest  Level Estimated
03:48PM 28.4294 -81.3090 336° Northwest  Level Estimated
03:49PM 28.4294 -81.3090 336° Northwest  Level Estimated
03:50PM 28.4294 -81.3090 336° Northwest  Level Estimated